PWSweather.com
Personal Weather Stations
Station Observations
KCOBLACK1
Chalet Park, Black Hawk, CO 80422

Chalet ParkBlack Hawk, CO 80422

Lat: 39.8294, Lon: -105.48

Elevation: 9370

Station Type: Vantage Pro2

http://www.oscaranddeb.com/weather

High Low Average
Temperature 36.7°F2.6°F 24.6°F-4.1°F 29.9°F-1.2°F
Dew Point 29.9°F-1.2°F 21.1°F-6.1°F 25.9°F-3.4°F
Winds 10.9 mph NE17.5 mph NE Calm Calm 5.2 mph 8.4 mph
Wind Gusts 23.0 mph37.0 mph -- 12.1 mph19.5 mph
Humidity 96% 60% 86%
Pressure 30.14 in1020.70 in 29.46 in997.60 in -
Precipitation 3.48 in88.40 in - -
Hour Temp Dew Point Humidity Winds Wind Gusts Pressure Precip Precip Rate Daily Precip Total
12:00 AM 30.3°F-0.9°C 29.0°F-1.7°C 95% 7.7 mph NNE12.4 kmh NNE 21.0 mph33.8 kmh 29.47 in998.0 mb 0.00 in0.0 mm 0.00 in0.0 mm 0.00 in0.0 mm
12:05 AM 30.3°F-0.9°C 29.0°F-1.7°C 95% 8.6 mph NNE13.8 kmh NNE 21.0 mph33.8 kmh 29.46 in997.6 mb 0.00 in0.0 mm 0.00 in0.0 mm 0.00 in0.0 mm
12:10 AM 30.2°F-1.0°C 28.9°F-1.7°C 95% 10.9 mph NE17.5 kmh NE 21.0 mph33.8 kmh 29.46 in997.6 mb 0.00 in0.0 mm 0.00 in0.0 mm 0.00 in0.0 mm
12:15 AM 30.2°F-1.0°C 28.9°F-1.7°C 95% 8.6 mph NE13.8 kmh NE 21.0 mph33.8 kmh 29.47 in998.0 mb 0.00 in0.0 mm 0.00 in0.0 mm 0.00 in0.0 mm
12:20 AM 30.1°F-1.1°C 28.8°F-1.8°C 95% 9.5 mph NE15.3 kmh NE 20.0 mph32.2 kmh 29.48 in998.3 mb 0.00 in0.0 mm 0.00 in0.0 mm 0.00 in0.0 mm
12:25 AM 30.0°F-1.1°C 28.7°F-1.8°C 95% 7.0 mph NE11.3 kmh NE 20.0 mph32.2 kmh 29.49 in998.6 mb 0.00 in0.0 mm 0.00 in0.0 mm 0.00 in0.0 mm
12:30 AM 29.9°F-1.2°C 28.6°F-1.9°C 95% 8.5 mph NE13.7 kmh NE 18.0 mph29.0 kmh 29.49 in998.6 mb 0.00 in0.0 mm 0.00 in0.0 mm 0.00 in0.0 mm
12:35 AM 29.9°F-1.2°C 28.6°F-1.9°C 95% 9.6 mph NE15.4 kmh NE 19.0 mph30.6 kmh 29.49 in998.6 mb 0.00 in0.0 mm 0.00 in0.0 mm 0.00 in0.0 mm
12:40 AM 29.8°F-1.2°C 28.5°F-1.9°C 95% 9.2 mph NE14.8 kmh NE 20.0 mph32.2 kmh 29.50 in999.0 mb 0.00 in0.0 mm 0.00 in0.0 mm 0.00 in0.0 mm
12:45 AM 29.8°F-1.2°C 28.5°F-1.9°C 95% 8.8 mph NE14.2 kmh NE 20.0 mph32.2 kmh 29.50 in999.0 mb 0.00 in0.0 mm 0.00 in0.0 mm 0.00 in0.0 mm
12:50 AM 29.8°F-1.2°C 28.5°F-1.9°C 95% 7.0 mph NNE11.3 kmh NNE 16.0 mph25.7 kmh 29.50 in999.0 mb 0.00 in0.0 mm 0.00 in0.0 mm 0.00 in0.0 mm
12:55 AM 29.8°F-1.2°C 28.5°F-1.9°C 95% 8.5 mph NNE13.7 kmh NNE 16.0 mph25.7 kmh 29.50 in999.0 mb 0.00 in0.0 mm 0.00 in0.0 mm 0.00 in0.0 mm
01:00 AM 29.8°F-1.2°C 28.5°F-1.9°C 95% 6.9 mph NNE11.1 kmh NNE 18.0 mph29.0 kmh 29.51 in999.3 mb 0.00 in0.0 mm 0.00 in0.0 mm 0.00 in0.0 mm
01:05 AM 29.8°F-1.2°C 28.5°F-1.9°C 95% 6.8 mph NNE10.9 kmh NNE 18.0 mph29.0 kmh 29.51 in999.3 mb 0.00 in0.0 mm 0.00 in0.0 mm 0.00 in0.0 mm
01:10 AM 29.8°F-1.2°C 28.5°F-1.9°C 95% 8.3 mph NNE13.4 kmh NNE 15.0 mph24.1 kmh 29.52 in999.7 mb 0.00 in0.0 mm 0.00 in0.0 mm 0.00 in0.0 mm
01:15 AM 29.8°F-1.2°C 28.5°F-1.9°C 95% 7.4 mph NE11.9 kmh NE 15.0 mph24.1 kmh 29.52 in999.7 mb 0.00 in0.0 mm 0.00 in0.0 mm 0.00 in0.0 mm
01:20 AM 29.8°F-1.2°C 28.8°F-1.8°C 96% 5.9 mph NNE9.5 kmh NNE 13.0 mph20.9 kmh 29.52 in999.7 mb 0.00 in0.0 mm 0.00 in0.0 mm 0.00 in0.0 mm
01:25 AM 29.9°F-1.2°C 28.9°F-1.7°C 96% 4.5 mph NE7.2 kmh NE 13.0 mph20.9 kmh 29.53 in1000.0 mb 0.00 in0.0 mm 0.00 in0.0 mm 0.00 in0.0 mm
01:30 AM 29.9°F-1.2°C 28.9°F-1.7°C 96% 5.2 mph NE8.4 kmh NE 11.0 mph17.7 kmh 29.53 in1000.0 mb 0.00 in0.0 mm 0.00 in0.0 mm 0.00 in0.0 mm
01:35 AM 29.9°F-1.2°C 28.9°F-1.7°C 96% 4.5 mph NE7.2 kmh NE 11.0 mph17.7 kmh 29.53 in1000.0 mb 0.00 in0.0 mm 0.00 in0.0 mm 0.00 in0.0 mm
01:40 AM 29.8°F-1.2°C 28.8°F-1.8°C 96% 5.5 mph NE8.9 kmh NE 13.0 mph20.9 kmh 29.53 in1000.0 mb 0.00 in0.0 mm 0.00 in0.0 mm 0.00 in0.0 mm
01:45 AM 29.7°F-1.3°C 28.7°F-1.8°C 96% 7.0 mph NNE11.3 kmh NNE 14.0 mph22.5 kmh 29.53 in1000.0 mb 0.00 in0.0 mm 0.00 in0.0 mm 0.00 in0.0 mm
01:50 AM 29.5°F-1.4°C 28.2°F-2.1°C 95% 6.3 mph NNE10.1 kmh NNE 14.0 mph22.5 kmh 29.53 in1000.0 mb 0.00 in0.0 mm 0.00 in0.0 mm 0.00 in0.0 mm
01:55 AM 29.4°F-1.4°C 28.1°F-2.2°C 95% 6.6 mph NE10.6 kmh NE 14.0 mph22.5 kmh 29.54 in1000.3 mb 0.00 in0.0 mm 0.00 in0.0 mm 0.00 in0.0 mm
02:00 AM 29.4°F-1.4°C 28.1°F-2.2°C 95% 4.0 mph NE6.4 kmh NE 14.0 mph22.5 kmh 29.54 in1000.3 mb 0.00 in0.0 mm 0.00 in0.0 mm 0.00 in0.0 mm
02:05 AM 29.3°F-1.5°C 28.0°F-2.2°C 95% 5.1 mph NE8.2 kmh NE 14.0 mph22.5 kmh 29.55 in1000.7 mb 0.00 in0.0 mm 0.00 in0.0 mm 0.00 in0.0 mm
02:10 AM 29.2°F-1.6°C 27.9°F-2.3°C 95% 7.3 mph NE11.7 kmh NE 14.0 mph22.5 kmh 29.55 in1000.7 mb 0.00 in0.0 mm 0.00 in0.0 mm 0.00 in0.0 mm
02:15 AM 29.1°F-1.6°C 28.1°F-2.2°C 96% 5.6 mph NE9.0 kmh NE 13.0 mph20.9 kmh 29.56 in1001.0 mb 0.00 in0.0 mm 0.00 in0.0 mm 0.00 in0.0 mm
02:20 AM 29.0°F-1.7°C 27.8°F-2.3°C 95% 6.6 mph NE10.6 kmh NE 12.0 mph19.3 kmh 29.57 in1001.4 mb 0.00 in0.0 mm 0.00 in0.0 mm 0.00 in0.0 mm
02:25 AM 28.8°F-1.8°C 27.6°F-2.4°C 95% 7.3 mph NE11.7 kmh NE 15.0 mph24.1 kmh 29.57 in1001.4 mb 0.00 in0.0 mm 0.00 in0.0 mm 0.00 in0.0 mm
02:30 AM 28.7°F-1.8°C 27.5°F-2.5°C 95% 5.8 mph NE9.3 kmh NE 15.0 mph24.1 kmh 29.58 in1001.7 mb 0.00 in0.0 mm 0.00 in0.0 mm 0.00 in0.0 mm
02:35 AM 28.7°F-1.8°C 27.5°F-2.5°C 95% 6.0 mph NE9.7 kmh NE 13.0 mph20.9 kmh 29.59 in1002.0 mb 0.00 in0.0 mm 0.00 in0.0 mm 0.00 in0.0 mm
02:40 AM 28.5°F-1.9°C 27.3°F-2.6°C 95% 5.8 mph NE9.3 kmh NE 13.0 mph20.9 kmh 29.59 in1002.0 mb 0.00 in0.0 mm 0.00 in0.0 mm 0.00 in0.0 mm
02:45 AM 28.4°F-2.0°C 27.2°F-2.7°C 95% 5.1 mph NE8.2 kmh NE 11.0 mph17.7 kmh 29.60 in1002.4 mb 0.00 in0.0 mm 0.00 in0.0 mm 0.00 in0.0 mm
02:50 AM 28.3°F-2.1°C 27.1°F-2.7°C 95% 5.9 mph NE9.5 kmh NE 11.0 mph17.7 kmh 29.60 in1002.4 mb 0.00 in0.0 mm 0.00 in0.0 mm 0.00 in0.0 mm
02:55 AM 28.1°F-2.2°C 26.9°F-2.8°C 95% 4.8 mph NE7.7 kmh NE 11.0 mph17.7 kmh 29.61 in1002.7 mb 0.00 in0.0 mm 0.00 in0.0 mm 0.00 in0.0 mm
03:00 AM 27.9°F-2.3°C 26.7°F-2.9°C 95% 4.1 mph NE6.6 kmh NE 12.0 mph19.3 kmh 29.61 in1002.7 mb 0.00 in0.0 mm 0.00 in0.0 mm 0.00 in0.0 mm
03:05 AM 27.7°F-2.4°C 26.5°F-3.1°C 95% 4.9 mph NE7.9 kmh NE 12.0 mph19.3 kmh 29.62 in1003.0 mb 0.00 in0.0 mm 0.00 in0.0 mm 0.00 in0.0 mm
03:10 AM 27.4°F-2.6°C 26.2°F-3.2°C 95% 4.4 mph NE7.1 kmh NE 12.0 mph19.3 kmh 29.62 in1003.0 mb 0.00 in0.0 mm 0.00 in0.0 mm 0.00 in0.0 mm
03:15 AM 27.2°F-2.7°C 26.0°F-3.3°C 95% 6.0 mph NE9.7 kmh NE 12.0 mph19.3 kmh 29.63 in1003.4 mb 0.00 in0.0 mm 0.00 in0.0 mm 0.00 in0.0 mm
03:20 AM 27.0°F-2.8°C 25.8°F-3.4°C 95% 5.7 mph NNE9.2 kmh NNE 13.0 mph20.9 kmh 29.63 in1003.4 mb 0.00 in0.0 mm 0.00 in0.0 mm 0.00 in0.0 mm
03:25 AM 26.7°F-2.9°C 25.2°F-3.8°C 94% 7.3 mph NE11.7 kmh NE 16.0 mph25.7 kmh 29.63 in1003.4 mb 0.00 in0.0 mm 0.00 in0.0 mm 0.00 in0.0 mm
03:30 AM 26.4°F-3.1°C 24.9°F-3.9°C 94% 8.4 mph NNE13.5 kmh NNE 17.0 mph27.4 kmh 29.63 in1003.4 mb 0.00 in0.0 mm 0.00 in0.0 mm 0.00 in0.0 mm
03:35 AM 26.1°F-3.3°C 24.6°F-4.1°C 94% 8.5 mph NNE13.7 kmh NNE 18.0 mph29.0 kmh 29.63 in1003.4 mb 0.00 in0.0 mm 0.00 in0.0 mm 0.00 in0.0 mm
03:40 AM 25.8°F-3.4°C 24.3°F-4.3°C 94% 8.5 mph NE13.7 kmh NE 18.0 mph29.0 kmh 29.63 in1003.4 mb 0.00 in0.0 mm 0.00 in0.0 mm 0.00 in0.0 mm
03:45 AM 25.6°F-3.6°C 24.1°F-4.4°C 94% 8.9 mph NNE14.3 kmh NNE 18.0 mph29.0 kmh 29.64 in1003.7 mb 0.00 in0.0 mm 0.00 in0.0 mm 0.00 in0.0 mm
03:50 AM 25.5°F-3.6°C 24.0°F-4.4°C 94% 9.1 mph NE14.6 kmh NE 19.0 mph30.6 kmh 29.64 in1003.7 mb 0.00 in0.0 mm 0.00 in0.0 mm 0.00 in0.0 mm
03:55 AM 25.3°F-3.7°C 23.8°F-4.6°C 94% 8.5 mph NE13.7 kmh NE 19.0 mph30.6 kmh 29.64 in1003.7 mb 0.00 in0.0 mm 0.00 in0.0 mm 0.00 in0.0 mm
04:00 AM 25.3°F-3.7°C 23.8°F-4.6°C 94% 7.6 mph NNE12.2 kmh NNE 18.0 mph29.0 kmh 29.65 in1004.1 mb 0.00 in0.0 mm 0.00 in0.0 mm 0.00 in0.0 mm
04:05 AM 25.3°F-3.7°C 24.1°F-4.4°C 95% 8.5 mph NNE13.7 kmh NNE 18.0 mph29.0 kmh 29.65 in1004.1 mb 0.00 in0.0 mm 0.00 in0.0 mm 0.00 in0.0 mm
04:10 AM 25.2°F-3.8°C 24.0°F-4.4°C 95% 9.4 mph NE15.1 kmh NE 18.0 mph29.0 kmh 29.66 in1004.4 mb 0.00 in0.0 mm 0.00 in0.0 mm 0.00 in0.0 mm
04:15 AM 25.2°F-3.8°C 24.0°F-4.4°C 95% 8.1 mph NE13.0 kmh NE 20.0 mph32.2 kmh 29.66 in1004.4 mb 0.00 in0.0 mm 0.00 in0.0 mm 0.00 in0.0 mm
04:20 AM 25.2°F-3.8°C 24.0°F-4.4°C 95% 8.7 mph NE14.0 kmh NE 20.0 mph32.2 kmh 29.66 in1004.4 mb 0.00 in0.0 mm 0.00 in0.0 mm 0.00 in0.0 mm
04:25 AM 25.2°F-3.8°C 24.0°F-4.4°C 95% 7.9 mph NE12.7 kmh NE 17.0 mph27.4 kmh 29.67 in1004.7 mb 0.00 in0.0 mm 0.00 in0.0 mm 0.00 in0.0 mm
04:30 AM 25.2°F-3.8°C 24.0°F-4.4°C 95% 8.7 mph NNE14.0 kmh NNE 16.0 mph25.7 kmh 29.67 in1004.7 mb 0.00 in0.0 mm 0.00 in0.0 mm 0.00 in0.0 mm
04:35 AM 25.2°F-3.8°C 24.0°F-4.4°C 95% 8.5 mph NNE13.7 kmh NNE 18.0 mph29.0 kmh 29.67 in1004.7 mb 0.00 in0.0 mm 0.00 in0.0 mm 0.00 in0.0 mm
04:40 AM 25.2°F-3.8°C 24.0°F-4.4°C 95% 7.9 mph NNE12.7 kmh NNE 19.0 mph30.6 kmh 29.67 in1004.7 mb 0.00 in0.0 mm 0.00 in0.0 mm 0.00 in0.0 mm
04:45 AM 25.2°F-3.8°C 24.0°F-4.4°C 95% 8.9 mph NNE14.3 kmh NNE 19.0 mph30.6 kmh 29.68 in1005.1 mb 0.00 in0.0 mm 0.00 in0.0 mm 0.00 in0.0 mm
04:50 AM 25.2°F-3.8°C 24.0°F-4.4°C 95% 7.9 mph NNE12.7 kmh NNE 17.0 mph27.4 kmh 29.68 in1005.1 mb 0.00 in0.0 mm 0.00 in0.0 mm 0.00 in0.0 mm
04:55 AM 25.3°F-3.7°C 24.1°F-4.4°C 95% 7.9 mph NNE12.7 kmh NNE 18.0 mph29.0 kmh 29.68 in1005.1 mb 0.00 in0.0 mm 0.00 in0.0 mm 0.00 in0.0 mm
05:00 AM 25.3°F-3.7°C 24.1°F-4.4°C 95% 8.7 mph NNE14.0 kmh NNE 18.0 mph29.0 kmh 29.69 in1005.4 mb 0.00 in0.0 mm 0.00 in0.0 mm 0.00 in0.0 mm
05:05 AM 25.3°F-3.7°C 24.1°F-4.4°C 95% 7.8 mph NNE12.6 kmh NNE 16.0 mph25.7 kmh 29.69 in1005.4 mb 0.00 in0.0 mm 0.00 in0.0 mm 0.00 in0.0 mm
05:10 AM 25.3°F-3.7°C 24.1°F-4.4°C 95% 8.3 mph NNE13.4 kmh NNE 23.0 mph37.0 kmh 29.70 in1005.8 mb 0.00 in0.0 mm 0.00 in0.0 mm 0.00 in0.0 mm
05:15 AM 25.3°F-3.7°C 24.1°F-4.4°C 95% 10.4 mph NNE16.7 kmh NNE 23.0 mph37.0 kmh 29.70 in1005.8 mb 0.00 in0.0 mm 0.00 in0.0 mm 0.00 in0.0 mm
05:20 AM 25.3°F-3.7°C 24.1°F-4.4°C 95% 8.5 mph NNE13.7 kmh NNE 18.0 mph29.0 kmh 29.70 in1005.8 mb 0.00 in0.0 mm 0.00 in0.0 mm 0.00 in0.0 mm
05:25 AM 25.4°F-3.7°C 24.2°F-4.3°C 95% 8.3 mph NNE13.4 kmh NNE 18.0 mph29.0 kmh 29.71 in1006.1 mb 0.00 in0.0 mm 0.00 in0.0 mm 0.00 in0.0 mm
05:30 AM 25.3°F-3.7°C 24.1°F-4.4°C 95% 10.1 mph NNE16.3 kmh NNE 19.0 mph30.6 kmh 29.71 in1006.1 mb 0.00 in0.0 mm 0.00 in0.0 mm 0.00 in0.0 mm
05:35 AM 25.3°F-3.7°C 24.1°F-4.4°C 95% 9.7 mph NNE15.6 kmh NNE 19.0 mph30.6 kmh 29.71 in1006.1 mb 0.00 in0.0 mm 0.00 in0.0 mm 0.00 in0.0 mm
05:40 AM 25.3°F-3.7°C 24.1°F-4.4°C 95% 7.3 mph NNE11.7 kmh NNE 18.0 mph29.0 kmh 29.72 in1006.4 mb 0.00 in0.0 mm 0.00 in0.0 mm 0.00 in0.0 mm
05:45 AM 25.2°F-3.8°C 24.0°F-4.4°C 95% 6.6 mph NNE10.6 kmh NNE 13.0 mph20.9 kmh 29.73 in1006.8 mb 0.00 in0.0 mm 0.00 in0.0 mm 0.00 in0.0 mm
05:50 AM 25.3°F-3.7°C 24.1°F-4.4°C 95% 7.9 mph NNE12.7 kmh NNE 18.0 mph29.0 kmh 29.73 in1006.8 mb 0.00 in0.0 mm 0.00 in0.0 mm 0.00 in0.0 mm
05:55 AM 25.3°F-3.7°C 24.1°F-4.4°C 95% 8.0 mph NE12.9 kmh NE 18.0 mph29.0 kmh 29.74 in1007.1 mb 0.00 in0.0 mm 0.00 in0.0 mm 0.00 in0.0 mm
06:00 AM 25.2°F-3.8°C 24.0°F-4.4°C 95% 8.8 mph NNE14.2 kmh NNE 16.0 mph25.7 kmh 29.75 in1007.5 mb 0.00 in0.0 mm 0.00 in0.0 mm 0.00 in0.0 mm
06:05 AM 25.2°F-3.8°C 24.0°F-4.4°C 95% 8.4 mph NE13.5 kmh NE 23.0 mph37.0 kmh 29.75 in1007.5 mb 0.00 in0.0 mm 0.00 in0.0 mm 0.00 in0.0 mm
06:10 AM 25.2°F-3.8°C 24.0°F-4.4°C 95% 8.5 mph NNE13.7 kmh NNE 23.0 mph37.0 kmh 29.76 in1007.8 mb 0.00 in0.0 mm 0.00 in0.0 mm 0.00 in0.0 mm
06:15 AM 25.2°F-3.8°C 24.0°F-4.4°C 95% 8.6 mph NNE13.8 kmh NNE 18.0 mph29.0 kmh 29.77 in1008.1 mb 0.00 in0.0 mm 0.00 in0.0 mm 0.00 in0.0 mm
06:20 AM 25.2°F-3.8°C 24.0°F-4.4°C 95% 6.8 mph NNE10.9 kmh NNE 18.0 mph29.0 kmh 29.77 in1008.1 mb 0.00 in0.0 mm 0.00 in0.0 mm 0.00 in0.0 mm
06:25 AM 25.3°F-3.7°C 24.1°F-4.4°C 95% 8.3 mph NNE13.4 kmh NNE 19.0 mph30.6 kmh 29.77 in1008.1 mb 0.00 in0.0 mm 0.00 in0.0 mm 0.00 in0.0 mm
06:30 AM 25.3°F-3.7°C 24.1°F-4.4°C 95% 8.2 mph NNE13.2 kmh NNE 20.0 mph32.2 kmh 29.78 in1008.5 mb 0.00 in0.0 mm 0.00 in0.0 mm 0.00 in0.0 mm
06:35 AM 25.3°F-3.7°C 24.1°F-4.4°C 95% 8.3 mph NNE13.4 kmh NNE 20.0 mph32.2 kmh 29.78 in1008.5 mb 0.00 in0.0 mm 0.00 in0.0 mm 0.00 in0.0 mm
06:40 AM 25.3°F-3.7°C 24.1°F-4.4°C 95% 8.2 mph NNE13.2 kmh NNE 19.0 mph30.6 kmh 29.78 in1008.5 mb 0.00 in0.0 mm 0.00 in0.0 mm 0.00 in0.0 mm
06:45 AM 25.3°F-3.7°C 24.1°F-4.4°C 95% 8.9 mph NNE14.3 kmh NNE 19.0 mph30.6 kmh 29.79 in1008.8 mb 0.00 in0.0 mm 0.00 in0.0 mm 0.00 in0.0 mm
06:50 AM 25.2°F-3.8°C 24.0°F-4.4°C 95% 7.7 mph NE12.4 kmh NE 18.0 mph29.0 kmh 29.80 in1009.1 mb 0.00 in0.0 mm 0.00 in0.0 mm 0.00 in0.0 mm
06:55 AM 25.2°F-3.8°C 24.0°F-4.4°C 95% 7.7 mph NNE12.4 kmh NNE 18.0 mph29.0 kmh 29.80 in1009.1 mb 0.00 in0.0 mm 0.00 in0.0 mm 0.00 in0.0 mm
07:00 AM 25.1°F-3.8°C 23.9°F-4.5°C 95% 10.8 mph NNE17.4 kmh NNE 18.0 mph29.0 kmh 29.80 in1009.1 mb 0.00 in0.0 mm 0.00 in0.0 mm 0.00 in0.0 mm
07:05 AM 25.1°F-3.8°C 23.9°F-4.5°C 95% 8.1 mph NNE13.0 kmh NNE 18.0 mph29.0 kmh 29.81 in1009.5 mb 0.00 in0.0 mm 0.00 in0.0 mm 0.00 in0.0 mm
07:10 AM 24.9°F-3.9°C 23.7°F-4.6°C 95% 8.5 mph NNE13.7 kmh NNE 17.0 mph27.4 kmh 29.81 in1009.5 mb 0.00 in0.0 mm 0.00 in0.0 mm 0.00 in0.0 mm
07:15 AM 24.9°F-3.9°C 23.7°F-4.6°C 95% 8.1 mph NNE13.0 kmh NNE 17.0 mph27.4 kmh 29.82 in1009.8 mb 0.00 in0.0 mm 0.00 in0.0 mm 0.00 in0.0 mm
07:20 AM 24.9°F-3.9°C 23.7°F-4.6°C 95% 6.6 mph NNE10.6 kmh NNE 21.0 mph33.8 kmh 29.82 in1009.8 mb 0.00 in0.0 mm 0.00 in0.0 mm 0.00 in0.0 mm
07:25 AM 24.9°F-3.9°C 23.7°F-4.6°C 95% 9.0 mph NNE14.5 kmh NNE 21.0 mph33.8 kmh 29.83 in1010.2 mb 0.00 in0.0 mm 0.00 in0.0 mm 0.00 in0.0 mm
07:30 AM 24.9°F-3.9°C 23.7°F-4.6°C 95% 6.2 mph NE10.0 kmh NE 16.0 mph25.7 kmh 29.83 in1010.2 mb 0.00 in0.0 mm 0.00 in0.0 mm 0.00 in0.0 mm
07:35 AM 24.9°F-3.9°C 23.7°F-4.6°C 95% 7.6 mph NNE12.2 kmh NNE 15.0 mph24.1 kmh 29.84 in1010.5 mb 0.00 in0.0 mm 0.00 in0.0 mm 0.00 in0.0 mm
07:40 AM 24.9°F-3.9°C 23.7°F-4.6°C 95% 7.3 mph NNE11.7 kmh NNE 17.0 mph27.4 kmh 29.84 in1010.5 mb 0.00 in0.0 mm 0.00 in0.0 mm 0.00 in0.0 mm
07:45 AM 25.0°F-3.9°C 23.8°F-4.6°C 95% 7.7 mph NNE12.4 kmh NNE 17.0 mph27.4 kmh 29.85 in1010.8 mb 0.00 in0.0 mm 0.00 in0.0 mm 0.00 in0.0 mm
07:50 AM 24.9°F-3.9°C 23.7°F-4.6°C 95% 6.5 mph NNE10.5 kmh NNE 16.0 mph25.7 kmh 29.85 in1010.8 mb 0.00 in0.0 mm 0.00 in0.0 mm 0.00 in0.0 mm
07:55 AM 25.0°F-3.9°C 23.8°F-4.6°C 95% 6.2 mph NNE10.0 kmh NNE 16.0 mph25.7 kmh 29.86 in1011.2 mb 0.00 in0.0 mm 0.00 in0.0 mm 0.00 in0.0 mm
08:00 AM 25.0°F-3.9°C 23.8°F-4.6°C 95% 6.0 mph NE9.7 kmh NE 13.0 mph20.9 kmh 29.86 in1011.2 mb 0.00 in0.0 mm 0.00 in0.0 mm 0.00 in0.0 mm
08:05 AM 24.9°F-3.9°C 23.7°F-4.6°C 95% 7.8 mph NNE12.6 kmh NNE 17.0 mph27.4 kmh 29.86 in1011.2 mb 0.00 in0.0 mm 0.00 in0.0 mm 0.00 in0.0 mm
08:10 AM 24.8°F-4.0°C 23.6°F-4.7°C 95% 6.9 mph NNE11.1 kmh NNE 17.0 mph27.4 kmh 29.87 in1011.5 mb 0.00 in0.0 mm 0.00 in0.0 mm 0.00 in0.0 mm
08:15 AM 24.7°F-4.1°C 23.5°F-4.7°C 95% 7.5 mph NNE12.1 kmh NNE 19.0 mph30.6 kmh 29.87 in1011.5 mb 0.00 in0.0 mm 0.00 in0.0 mm 0.00 in0.0 mm
08:20 AM 24.7°F-4.1°C 23.5°F-4.7°C 95% 6.6 mph NNE10.6 kmh NNE 19.0 mph30.6 kmh 29.88 in1011.9 mb 0.00 in0.0 mm 0.00 in0.0 mm 0.00 in0.0 mm
08:25 AM 24.7°F-4.1°C 23.5°F-4.7°C 95% 6.5 mph NNE10.5 kmh NNE 16.0 mph25.7 kmh 29.88 in1011.9 mb 0.00 in0.0 mm 0.00 in0.0 mm 0.00 in0.0 mm
08:30 AM 24.7°F-4.1°C 23.5°F-4.7°C 95% 7.2 mph NNE11.6 kmh NNE 16.0 mph25.7 kmh 29.88 in1011.9 mb 0.00 in0.0 mm 0.00 in0.0 mm 0.00 in0.0 mm
08:35 AM 24.6°F-4.1°C 23.4°F-4.8°C 95% 5.6 mph N9.0 kmh N 16.0 mph25.7 kmh 29.89 in1012.2 mb 0.00 in0.0 mm 0.00 in0.0 mm 0.00 in0.0 mm
08:40 AM 24.6°F-4.1°C 23.4°F-4.8°C 95% 8.6 mph N13.8 kmh N 17.0 mph27.4 kmh 29.89 in1012.2 mb 0.00 in0.0 mm 0.00 in0.0 mm 0.00 in0.0 mm
08:45 AM 24.7°F-4.1°C 23.5°F-4.7°C 95% 7.8 mph NNE12.6 kmh NNE 17.0 mph27.4 kmh 29.89 in1012.2 mb 0.00 in0.0 mm 0.00 in0.0 mm 0.00 in0.0 mm
08:50 AM 24.8°F-4.0°C 23.6°F-4.7°C 95% 7.0 mph N11.3 kmh N 17.0 mph27.4 kmh 29.89 in1012.2 mb 0.00 in0.0 mm 0.00 in0.0 mm 0.00 in0.0 mm
08:55 AM 25.1°F-3.8°C 23.9°F-4.5°C 95% 6.3 mph NNE10.1 kmh NNE 17.0 mph27.4 kmh 29.89 in1012.2 mb 0.00 in0.0 mm 0.00 in0.0 mm 0.00 in0.0 mm
09:00 AM 25.3°F-3.7°C 24.1°F-4.4°C 95% 7.5 mph NNE12.1 kmh NNE 13.0 mph20.9 kmh 29.89 in1012.2 mb 0.00 in0.0 mm 0.00 in0.0 mm 0.00 in0.0 mm
09:05 AM 25.4°F-3.7°C 24.2°F-4.3°C 95% 6.3 mph NNE10.1 kmh NNE 14.0 mph22.5 kmh 29.89 in1012.2 mb 0.00 in0.0 mm 0.00 in0.0 mm 0.00 in0.0 mm
09:10 AM 25.5°F-3.6°C 24.3°F-4.3°C 95% 8.7 mph NNE14.0 kmh NNE 17.0 mph27.4 kmh 29.90 in1012.5 mb 0.00 in0.0 mm 0.00 in0.0 mm 0.00 in0.0 mm
09:15 AM 25.7°F-3.5°C 24.5°F-4.2°C 95% 4.6 mph NNE7.4 kmh NNE 17.0 mph27.4 kmh 29.90 in1012.5 mb 0.00 in0.0 mm 0.00 in0.0 mm 0.00 in0.0 mm
09:20 AM 25.9°F-3.4°C 24.7°F-4.1°C 95% 6.3 mph NNE10.1 kmh NNE 13.0 mph20.9 kmh 29.91 in1012.9 mb 0.00 in0.0 mm 0.00 in0.0 mm 0.00 in0.0 mm
09:25 AM 25.9°F-3.4°C 24.7°F-4.1°C 95% 6.1 mph NNE9.8 kmh NNE 14.0 mph22.5 kmh 29.91 in1012.9 mb 0.00 in0.0 mm 0.00 in0.0 mm 0.00 in0.0 mm
09:30 AM 26.0°F-3.3°C 24.8°F-4.0°C 95% 6.7 mph NNE10.8 kmh NNE 14.0 mph22.5 kmh 29.91 in1012.9 mb 0.00 in0.0 mm 0.00 in0.0 mm 0.00 in0.0 mm
09:35 AM 26.1°F-3.3°C 24.9°F-3.9°C 95% 5.2 mph NNE8.4 kmh NNE 14.0 mph22.5 kmh 29.91 in1012.9 mb 0.00 in0.0 mm 0.00 in0.0 mm 0.00 in0.0 mm
09:40 AM 26.2°F-3.2°C 25.0°F-3.9°C 95% 7.3 mph NNE11.7 kmh NNE 16.0 mph25.7 kmh 29.91 in1012.9 mb 0.00 in0.0 mm 0.00 in0.0 mm 0.00 in0.0 mm
09:45 AM 26.4°F-3.1°C 25.2°F-3.8°C 95% 6.4 mph NNE10.3 kmh NNE 16.0 mph25.7 kmh 29.91 in1012.9 mb 0.00 in0.0 mm 0.00 in0.0 mm 0.00 in0.0 mm
09:50 AM 26.3°F-3.2°C 24.8°F-4.0°C 94% 6.9 mph NNE11.1 kmh NNE 13.0 mph20.9 kmh 29.92 in1013.2 mb 0.00 in0.0 mm 0.00 in0.0 mm 0.00 in0.0 mm
09:55 AM 26.4°F-3.1°C 24.9°F-3.9°C 94% 5.5 mph NNE8.9 kmh NNE 13.0 mph20.9 kmh 29.92 in1013.2 mb 0.00 in0.0 mm 0.00 in0.0 mm 0.00 in0.0 mm
10:00 AM 26.6°F-3.0°C 25.1°F-3.8°C 94% 4.8 mph NE7.7 kmh NE 13.0 mph20.9 kmh 29.92 in1013.2 mb 0.00 in0.0 mm 0.00 in0.0 mm 0.00 in0.0 mm
10:05 AM 26.9°F-2.8°C 25.4°F-3.7°C 94% 4.0 mph NNE6.4 kmh NNE 11.0 mph17.7 kmh 29.92 in1013.2 mb 0.00 in0.0 mm 0.00 in0.0 mm 0.00 in0.0 mm
10:10 AM 27.2°F-2.7°C 25.7°F-3.5°C 94% 5.9 mph NE9.5 kmh NE 12.0 mph19.3 kmh 29.93 in1013.5 mb 0.00 in0.0 mm 0.00 in0.0 mm 0.00 in0.0 mm
10:15 AM 27.5°F-2.5°C 26.0°F-3.3°C 94% 3.6 mph NE5.8 kmh NE 12.0 mph19.3 kmh 29.93 in1013.5 mb 0.00 in0.0 mm 0.00 in0.0 mm 0.00 in0.0 mm
10:20 AM 27.8°F-2.3°C 26.3°F-3.2°C 94% 3.0 mph NE4.8 kmh NE 8.0 mph12.9 kmh 29.93 in1013.5 mb 0.00 in0.0 mm 0.00 in0.0 mm 0.00 in0.0 mm
10:25 AM 28.0°F-2.2°C 26.5°F-3.1°C 94% 5.5 mph NE8.9 kmh NE 12.0 mph19.3 kmh 29.94 in1013.9 mb 0.00 in0.0 mm 0.00 in0.0 mm 0.00 in0.0 mm
10:30 AM 28.3°F-2.1°C 26.8°F-2.9°C 94% 4.3 mph NNE6.9 kmh NNE 12.0 mph19.3 kmh 29.94 in1013.9 mb 0.00 in0.0 mm 0.00 in0.0 mm 0.00 in0.0 mm
10:35 AM 28.8°F-1.8°C 27.3°F-2.6°C 94% 5.0 mph NNE8.0 kmh NNE 12.0 mph19.3 kmh 29.94 in1013.9 mb 0.00 in0.0 mm 0.00 in0.0 mm 0.00 in0.0 mm
10:40 AM 29.4°F-1.4°C 27.9°F-2.3°C 94% 5.0 mph NNE8.0 kmh NNE 12.0 mph19.3 kmh 29.94 in1013.9 mb 0.00 in0.0 mm 0.00 in0.0 mm 0.00 in0.0 mm
10:45 AM 29.7°F-1.3°C 27.4°F-2.6°C 91% 6.7 mph NNE10.8 kmh NNE 15.0 mph24.1 kmh 29.95 in1014.2 mb 0.00 in0.0 mm 0.00 in0.0 mm 0.00 in0.0 mm
10:50 AM 29.4°F-1.4°C 27.1°F-2.7°C 91% 7.2 mph NNE11.6 kmh NNE 15.0 mph24.1 kmh 29.95 in1014.2 mb 0.00 in0.0 mm 0.00 in0.0 mm 0.00 in0.0 mm
10:55 AM 29.5°F-1.4°C 26.9°F-2.8°C 90% 5.6 mph NNE9.0 kmh NNE 15.0 mph24.1 kmh 29.95 in1014.2 mb 0.00 in0.0 mm 0.00 in0.0 mm 0.00 in0.0 mm
11:00 AM 29.8°F-1.2°C 27.8°F-2.3°C 92% 4.5 mph NE7.2 kmh NE 10.0 mph16.1 kmh 29.96 in1014.6 mb 0.00 in0.0 mm 0.00 in0.0 mm 0.00 in0.0 mm
11:05 AM 30.1°F-1.1°C 27.5°F-2.5°C 90% 6.5 mph NNE10.5 kmh NNE 14.0 mph22.5 kmh 29.96 in1014.6 mb 0.00 in0.0 mm 0.00 in0.0 mm 0.00 in0.0 mm
11:10 AM 30.4°F-0.9°C 27.8°F-2.3°C 90% 6.9 mph NE11.1 kmh NE 15.0 mph24.1 kmh 29.97 in1014.9 mb 0.00 in0.0 mm 0.00 in0.0 mm 0.00 in0.0 mm
11:15 AM 30.9°F-0.6°C 28.3°F-2.1°C 90% 5.2 mph NNE8.4 kmh NNE 15.0 mph24.1 kmh 29.98 in1015.2 mb 0.00 in0.0 mm 0.00 in0.0 mm 0.00 in0.0 mm
11:20 AM 31.3°F-0.4°C 28.4°F-2.0°C 89% 6.3 mph NE10.1 kmh NE 13.0 mph20.9 kmh 29.97 in1014.9 mb 0.00 in0.0 mm 0.00 in0.0 mm 0.00 in0.0 mm
11:25 AM 31.2°F-0.4°C 27.8°F-2.3°C 87% 8.9 mph NNE14.3 kmh NNE 17.0 mph27.4 kmh 29.98 in1015.2 mb 0.00 in0.0 mm 0.00 in0.0 mm 0.00 in0.0 mm
11:30 AM 31.6°F-0.2°C 28.5°F-1.9°C 88% 7.2 mph NE11.6 kmh NE 17.0 mph27.4 kmh 29.99 in1015.6 mb 0.00 in0.0 mm 0.00 in0.0 mm 0.00 in0.0 mm
11:35 AM 31.8°F-0.1°C 28.4°F-2.0°C 87% 6.8 mph NE10.9 kmh NE 16.0 mph25.7 kmh 29.99 in1015.6 mb 0.00 in0.0 mm 0.00 in0.0 mm 0.00 in0.0 mm
11:40 AM 32.1°F0.1°C 28.7°F-1.8°C 87% 6.4 mph NE10.3 kmh NE 14.0 mph22.5 kmh 29.99 in1015.6 mb 0.00 in0.0 mm 0.00 in0.0 mm 0.00 in0.0 mm
11:45 AM 32.6°F0.3°C 28.6°F-1.9°C 85% 6.8 mph NE10.9 kmh NE 14.0 mph22.5 kmh 29.99 in1015.6 mb 0.00 in0.0 mm 0.00 in0.0 mm 0.00 in0.0 mm
11:50 AM 33.1°F0.6°C 28.8°F-1.8°C 84% 7.4 mph NE11.9 kmh NE 14.0 mph22.5 kmh 29.99 in1015.6 mb 0.00 in0.0 mm 0.00 in0.0 mm 0.00 in0.0 mm
11:55 AM 33.3°F0.7°C 29.0°F-1.7°C 84% 5.5 mph NNE8.9 kmh NNE 13.0 mph20.9 kmh 29.99 in1015.6 mb 0.00 in0.0 mm 0.00 in0.0 mm 0.00 in0.0 mm
12:00 PM 33.2°F0.7°C 28.6°F-1.9°C 83% 4.1 mph NE6.6 kmh NE 12.0 mph19.3 kmh 30.00 in1015.9 mb 0.01 in0.3 mm 0.01 in0.3 mm 0.01 in0.3 mm
12:05 PM 33.2°F0.7°C 28.0°F-2.2°C 81% 5.4 mph NE8.7 kmh NE 11.0 mph17.7 kmh 30.00 in1015.9 mb 0.01 in0.3 mm 0.00 in0.0 mm 0.01 in0.3 mm
12:10 PM 33.0°F0.6°C 27.8°F-2.3°C 81% 6.9 mph NNE11.1 kmh NNE 17.0 mph27.4 kmh 30.00 in1015.9 mb 0.02 in0.5 mm 0.12 in3.0 mm 0.02 in0.5 mm
12:15 PM 32.9°F0.5°C 28.0°F-2.2°C 82% 4.9 mph NE7.9 kmh NE 17.0 mph27.4 kmh 30.00 in1015.9 mb 0.03 in0.8 mm 0.12 in3.0 mm 0.03 in0.8 mm
12:20 PM 32.9°F0.5°C 27.7°F-2.4°C 81% 7.0 mph NNE11.3 kmh NNE 16.0 mph25.7 kmh 30.00 in1015.9 mb 0.04 in1.0 mm 0.12 in3.0 mm 0.04 in1.0 mm
12:25 PM 33.4°F0.8°C 28.8°F-1.8°C 83% 5.1 mph NE8.2 kmh NE 16.0 mph25.7 kmh 30.00 in1015.9 mb 0.05 in1.3 mm 0.12 in3.0 mm 0.05 in1.3 mm
12:30 PM 33.8°F1.0°C 28.9°F-1.7°C 82% 5.4 mph NE8.7 kmh NE 15.0 mph24.1 kmh 30.00 in1015.9 mb 0.06 in1.5 mm 0.12 in3.0 mm 0.06 in1.5 mm
12:35 PM 33.8°F1.0°C 28.3°F-2.1°C 80% 4.3 mph NE6.9 kmh NE 14.0 mph22.5 kmh 30.01 in1016.3 mb 0.07 in1.8 mm 0.12 in3.0 mm 0.07 in1.8 mm
12:40 PM 33.6°F0.9°C 28.4°F-2.0°C 81% 4.0 mph NNE6.4 kmh NNE 14.0 mph22.5 kmh 30.00 in1015.9 mb 0.08 in2.0 mm 0.12 in3.0 mm 0.08 in2.0 mm
12:45 PM 33.6°F0.9°C 29.0°F-1.7°C 83% 4.3 mph NE6.9 kmh NE 10.0 mph16.1 kmh 30.01 in1016.3 mb 0.09 in2.3 mm 0.12 in3.0 mm 0.09 in2.3 mm
12:50 PM 33.6°F0.9°C 28.1°F-2.2°C 80% 5.9 mph NE9.5 kmh NE 11.0 mph17.7 kmh 30.00 in1015.9 mb 0.10 in2.5 mm 0.12 in3.0 mm 0.10 in2.5 mm
12:55 PM 33.7°F0.9°C 28.5°F-1.9°C 81% 3.8 mph NE6.1 kmh NE 11.0 mph17.7 kmh 30.00 in1015.9 mb 0.10 in2.5 mm 0.00 in0.0 mm 0.10 in2.5 mm
01:00 PM 33.7°F0.9°C 27.9°F-2.3°C 79% 6.8 mph NE10.9 kmh NE 12.0 mph19.3 kmh 30.01 in1016.3 mb 0.10 in2.5 mm 0.00 in0.0 mm 0.11 in2.8 mm
01:05 PM 34.1°F1.2°C 28.3°F-2.1°C 79% 4.3 mph NE6.9 kmh NE 12.0 mph19.3 kmh 30.01 in1016.3 mb 0.11 in2.8 mm 0.12 in3.0 mm 0.12 in3.0 mm
01:10 PM 34.8°F1.6°C 29.6°F-1.3°C 81% 3.2 mph NE5.1 kmh NE 12.0 mph19.3 kmh 30.02 in1016.6 mb 0.10 in2.5 mm 0.00 in0.0 mm 0.12 in3.0 mm
01:15 PM 35.1°F1.7°C 29.3°F-1.5°C 79% 4.3 mph NE6.9 kmh NE 12.0 mph19.3 kmh 30.02 in1016.6 mb 0.10 in2.5 mm 0.00 in0.0 mm 0.13 in3.3 mm
01:20 PM 34.7°F1.5°C 27.6°F-2.4°C 75% 5.3 mph NNE8.5 kmh NNE 12.0 mph19.3 kmh 30.03 in1016.9 mb 0.10 in2.5 mm 0.00 in0.0 mm 0.14 in3.6 mm
01:25 PM 34.4°F1.3°C 27.3°F-2.6°C 75% 5.9 mph NNE9.5 kmh NNE 12.0 mph19.3 kmh 30.03 in1016.9 mb 0.10 in2.5 mm 0.00 in0.0 mm 0.15 in3.8 mm
01:30 PM 34.4°F1.3°C 28.0°F-2.2°C 77% 5.8 mph NNE9.3 kmh NNE 13.0 mph20.9 kmh 30.03 in1016.9 mb 0.09 in2.3 mm 0.00 in0.0 mm 0.15 in3.8 mm
01:35 PM 34.5°F1.4°C 27.7°F-2.4°C 76% 5.1 mph NE8.2 kmh NE 13.0 mph20.9 kmh 30.03 in1016.9 mb 0.09 in2.3 mm 0.00 in0.0 mm 0.16 in4.1 mm
01:40 PM 34.8°F1.6°C 27.7°F-2.4°C 75% 5.6 mph NNE9.0 kmh NNE 12.0 mph19.3 kmh 30.04 in1017.3 mb 0.08 in2.0 mm 0.00 in0.0 mm 0.16 in4.1 mm
01:45 PM 35.6°F2.0°C 28.8°F-1.8°C 76% 4.2 mph NNE6.8 kmh NNE 12.0 mph19.3 kmh 30.04 in1017.3 mb 0.08 in2.0 mm 0.00 in0.0 mm 0.17 in4.3 mm
01:50 PM 36.4°F2.4°C 29.9°F-1.2°C 77% 4.7 mph NE7.6 kmh NE 12.0 mph19.3 kmh 30.04 in1017.3 mb 0.08 in2.0 mm 0.00 in0.0 mm 0.18 in4.6 mm
01:55 PM 36.6°F2.6°C 29.1°F-1.6°C 74% 3.4 mph NE5.5 kmh NE 12.0 mph19.3 kmh 30.04 in1017.3 mb 0.09 in2.3 mm 0.12 in3.0 mm 0.19 in4.8 mm
02:00 PM 36.6°F2.6°C 29.4°F-1.4°C 75% 5.8 mph NE9.3 kmh NE 13.0 mph20.9 kmh 30.04 in1017.3 mb 0.09 in2.3 mm 0.00 in0.0 mm 0.20 in5.1 mm
02:05 PM 36.7°F2.6°C 29.5°F-1.4°C 75% 5.1 mph NE8.2 kmh NE 13.0 mph20.9 kmh 30.04 in1017.3 mb 0.09 in2.3 mm 0.00 in0.0 mm 0.21 in5.3 mm
02:10 PM 36.1°F2.3°C 28.6°F-1.9°C 74% 5.6 mph NE9.0 kmh NE 11.0 mph17.7 kmh 30.04 in1017.3 mb 0.09 in2.3 mm 0.00 in0.0 mm 0.21 in5.3 mm
02:15 PM 35.7°F2.1°C 28.6°F-1.9°C 75% 4.3 mph NE6.9 kmh NE 11.0 mph17.7 kmh 30.04 in1017.3 mb 0.09 in2.3 mm 0.00 in0.0 mm 0.22 in5.6 mm
02:20 PM 35.4°F1.9°C 28.9°F-1.7°C 77% 2.4 mph NE3.9 kmh NE 11.0 mph17.7 kmh 30.04 in1017.3 mb 0.09 in2.3 mm 0.00 in0.0 mm 0.23 in5.8 mm
02:25 PM 35.0°F1.7°C 28.8°F-1.8°C 78% 3.6 mph NE5.8 kmh NE 9.0 mph14.5 kmh 30.04 in1017.3 mb 0.08 in2.0 mm 0.00 in0.0 mm 0.23 in5.8 mm
02:30 PM 34.8°F1.6°C 29.0°F-1.7°C 79% 4.2 mph NE6.8 kmh NE 9.0 mph14.5 kmh 30.04 in1017.3 mb 0.08 in2.0 mm 0.00 in0.0 mm 0.23 in5.8 mm
02:35 PM 34.6°F1.4°C 29.1°F-1.6°C 80% 3.7 mph NE6.0 kmh NE 11.0 mph17.7 kmh 30.05 in1017.6 mb 0.08 in2.0 mm 0.00 in0.0 mm 0.24 in6.1 mm
02:40 PM 34.6°F1.4°C 29.1°F-1.6°C 80% 2.1 mph NE3.4 kmh NE 11.0 mph17.7 kmh 30.05 in1017.6 mb 0.08 in2.0 mm 0.00 in0.0 mm 0.24 in6.1 mm
02:45 PM 34.4°F1.3°C 28.3°F-2.1°C 78% 3.1 mph NE5.0 kmh NE 7.0 mph11.3 kmh 30.05 in1017.6 mb 0.07 in1.8 mm 0.00 in0.0 mm 0.24 in6.1 mm
02:50 PM 34.0°F1.1°C 27.9°F-2.3°C 78% 3.6 mph NE5.8 kmh NE 8.0 mph12.9 kmh 30.05 in1017.6 mb 0.06 in1.5 mm 0.00 in0.0 mm 0.24 in6.1 mm
02:55 PM 33.8°F1.0°C 28.3°F-2.1°C 80% 1.7 mph NE2.7 kmh NE 8.0 mph12.9 kmh 30.05 in1017.6 mb 0.06 in1.5 mm 0.00 in0.0 mm 0.25 in6.4 mm
03:00 PM 33.7°F0.9°C 27.3°F-2.6°C 77% 3.7 mph NE6.0 kmh NE 10.0 mph16.1 kmh 30.05 in1017.6 mb 0.05 in1.3 mm 0.00 in0.0 mm 0.25 in6.4 mm
03:05 PM 33.5°F0.8°C 27.4°F-2.6°C 78% 5.0 mph NE8.0 kmh NE 11.0 mph17.7 kmh 30.06 in1017.9 mb 0.04 in1.0 mm 0.00 in0.0 mm 0.25 in6.4 mm
03:10 PM 33.3°F0.7°C 26.9°F-2.8°C 77% 2.7 mph NE4.3 kmh NE 11.0 mph17.7 kmh 30.06 in1017.9 mb 0.04 in1.0 mm 0.00 in0.0 mm 0.25 in6.4 mm
03:15 PM 33.3°F0.7°C 26.9°F-2.8°C 77% 3.5 mph NNE5.6 kmh NNE 10.0 mph16.1 kmh 30.06 in1017.9 mb 0.03 in0.8 mm 0.00 in0.0 mm 0.25 in6.4 mm
03:20 PM 33.4°F0.8°C 27.6°F-2.4°C 79% 3.2 mph NE5.1 kmh NE 10.0 mph16.1 kmh 30.06 in1017.9 mb 0.02 in0.5 mm 0.00 in0.0 mm 0.25 in6.4 mm
03:25 PM 33.3°F0.7°C 26.9°F-2.8°C 77% 5.8 mph NE9.3 kmh NE 14.0 mph22.5 kmh 30.06 in1017.9 mb 0.03 in0.8 mm 0.12 in3.0 mm 0.26 in6.6 mm
03:30 PM 33.3°F0.7°C 27.2°F-2.7°C 78% 4.3 mph NE6.9 kmh NE 14.0 mph22.5 kmh 30.07 in1018.3 mb 0.03 in0.8 mm 0.00 in0.0 mm 0.26 in6.6 mm
03:35 PM 33.3°F0.7°C 26.9°F-2.8°C 77% 4.5 mph NNE7.2 kmh NNE 11.0 mph17.7 kmh 30.07 in1018.3 mb 0.02 in0.5 mm 0.00 in0.0 mm 0.26 in6.6 mm
03:40 PM 33.2°F0.7°C 26.8°F-2.9°C 77% 4.5 mph NE7.2 kmh NE 11.0 mph17.7 kmh 30.07 in1018.3 mb 0.02 in0.5 mm 0.00 in0.0 mm 0.26 in6.6 mm
03:45 PM 33.1°F0.6°C 27.0°F-2.8°C 78% 4.0 mph NNE6.4 kmh NNE 11.0 mph17.7 kmh 30.08 in1018.6 mb 0.02 in0.5 mm 0.00 in0.0 mm 0.26 in6.6 mm
03:50 PM 33.0°F0.6°C 27.2°F-2.7°C 79% 3.4 mph NE5.5 kmh NE 9.0 mph14.5 kmh 30.08 in1018.6 mb 0.02 in0.5 mm 0.00 in0.0 mm 0.26 in6.6 mm
03:55 PM 33.1°F0.6°C 27.0°F-2.8°C 78% 4.4 mph NE7.1 kmh NE 11.0 mph17.7 kmh 30.08 in1018.6 mb 0.01 in0.3 mm 0.00 in0.0 mm 0.26 in6.6 mm
04:00 PM 33.1°F0.6°C 27.3°F-2.6°C 79% 4.1 mph NE6.6 kmh NE 11.0 mph17.7 kmh 30.08 in1018.6 mb 0.01 in0.3 mm 0.00 in0.0 mm 0.26 in6.6 mm
04:05 PM 33.0°F0.6°C 27.2°F-2.7°C 79% 2.7 mph NE4.3 kmh NE 8.0 mph12.9 kmh 30.09 in1019.0 mb 0.01 in0.3 mm 0.00 in0.0 mm 0.26 in6.6 mm
04:10 PM 32.8°F0.4°C 26.7°F-2.9°C 78% 3.8 mph NE6.1 kmh NE 10.0 mph16.1 kmh 30.08 in1018.6 mb 0.02 in0.5 mm 0.12 in3.0 mm 0.27 in6.9 mm
04:15 PM 32.8°F0.4°C 27.3°F-2.6°C 80% 3.6 mph NE5.8 kmh NE 10.0 mph16.1 kmh 30.09 in1019.0 mb 0.02 in0.5 mm 0.00 in0.0 mm 0.27 in6.9 mm
04:20 PM 32.8°F0.4°C 27.0°F-2.8°C 79% 2.1 mph NE3.4 kmh NE 8.0 mph12.9 kmh 30.09 in1019.0 mb 0.02 in0.5 mm 0.00 in0.0 mm 0.27 in6.9 mm
04:25 PM 32.8°F0.4°C 27.3°F-2.6°C 80% 2.9 mph NE4.7 kmh NE 7.0 mph11.3 kmh 30.09 in1019.0 mb 0.01 in0.3 mm 0.00 in0.0 mm 0.27 in6.9 mm
04:30 PM 32.8°F0.4°C 27.0°F-2.8°C 79% 2.8 mph NE4.5 kmh NE 7.0 mph11.3 kmh 30.09 in1019.0 mb 0.01 in0.3 mm 0.00 in0.0 mm 0.27 in6.9 mm
04:35 PM 32.8°F0.4°C 27.0°F-2.8°C 79% 1.2 mph NE1.9 kmh NE 6.0 mph9.7 kmh 30.10 in1019.3 mb 0.01 in0.3 mm 0.00 in0.0 mm 0.27 in6.9 mm
04:40 PM 32.9°F0.5°C 27.1°F-2.7°C 79% 1.9 mph NE3.1 kmh NE 7.0 mph11.3 kmh 30.10 in1019.3 mb 0.01 in0.3 mm 0.00 in0.0 mm 0.27 in6.9 mm
04:45 PM 32.9°F0.5°C 27.1°F-2.7°C 79% 2.5 mph NE4.0 kmh NE 8.0 mph12.9 kmh 30.10 in1019.3 mb 0.01 in0.3 mm 0.00 in0.0 mm 0.27 in6.9 mm
04:50 PM 33.0°F0.6°C 27.8°F-2.3°C 81% 1.4 mph ENE2.3 kmh ENE 8.0 mph12.9 kmh 30.10 in1019.3 mb 0.01 in0.3 mm 0.00 in0.0 mm 0.27 in6.9 mm
04:55 PM 33.0°F0.6°C 27.8°F-2.3°C 81% 0.8 mph NE1.3 kmh NE 4.0 mph6.4 kmh 30.10 in1019.3 mb 0.01 in0.3 mm 0.00 in0.0 mm 0.27 in6.9 mm
05:00 PM 32.9°F0.5°C 27.4°F-2.6°C 80% 1.7 mph ESE2.7 kmh ESE 5.0 mph8.0 kmh 30.10 in1019.3 mb 0.02 in0.5 mm 0.01 in0.3 mm 0.28 in7.1 mm
05:05 PM 32.6°F0.3°C 27.4°F-2.6°C 81% 2.7 mph SE4.3 kmh SE 5.0 mph8.0 kmh 30.10 in1019.3 mb 0.02 in0.5 mm 0.00 in0.0 mm 0.28 in7.1 mm
05:10 PM 32.2°F0.1°C 27.3°F-2.6°C 82% 1.1 mph SE1.8 kmh SE 5.0 mph8.0 kmh 30.11 in1019.6 mb 0.01 in0.3 mm 0.00 in0.0 mm 0.28 in7.1 mm
05:15 PM 32.1°F0.1°C 26.9°F-2.8°C 81% 1.3 mph SE2.1 kmh SE 5.0 mph8.0 kmh 30.11 in1019.6 mb 0.01 in0.3 mm 0.00 in0.0 mm 0.28 in7.1 mm
05:20 PM 32.2°F0.1°C 27.9°F-2.3°C 84% 0.9 mph ESE1.4 kmh ESE 4.0 mph6.4 kmh 30.11 in1019.6 mb 0.01 in0.3 mm 0.00 in0.0 mm 0.28 in7.1 mm
05:25 PM 32.4°F0.2°C 27.8°F-2.3°C 83% 0.7 mph E1.1 kmh E 4.0 mph6.4 kmh 30.11 in1019.6 mb 0.01 in0.3 mm 0.00 in0.0 mm 0.28 in7.1 mm
05:30 PM 32.7°F0.4°C 27.8°F-2.3°C 82% 1.2 mph ENE1.9 kmh ENE 4.0 mph6.4 kmh 30.11 in1019.6 mb 0.01 in0.3 mm 0.00 in0.0 mm 0.28 in7.1 mm
05:35 PM 32.9°F0.5°C 27.7°F-2.4°C 81% 1.3 mph NE2.1 kmh NE 5.0 mph8.0 kmh 30.11 in1019.6 mb 0.01 in0.3 mm 0.00 in0.0 mm 0.28 in7.1 mm
05:40 PM 33.4°F0.8°C 28.2°F-2.1°C 81% 1.3 mph ENE2.1 kmh ENE 5.0 mph8.0 kmh 30.11 in1019.6 mb 0.01 in0.3 mm 0.00 in0.0 mm 0.28 in7.1 mm
05:45 PM 33.8°F1.0°C 28.0°F-2.2°C 79% 1.9 mph ENE3.1 kmh ENE 5.0 mph8.0 kmh 30.11 in1019.6 mb 0.01 in0.3 mm 0.00 in0.0 mm 0.28 in7.1 mm
05:50 PM 33.9°F1.1°C 28.1°F-2.2°C 79% 1.9 mph ENE3.1 kmh ENE 5.0 mph8.0 kmh 30.12 in1020.0 mb 0.01 in0.3 mm 0.00 in0.0 mm 0.28 in7.1 mm
05:55 PM 33.8°F1.0°C 27.4°F-2.6°C 77% 1.2 mph ENE1.9 kmh ENE 4.0 mph6.4 kmh 30.12 in1020.0 mb 0.01 in0.3 mm 0.00 in0.0 mm 0.28 in7.1 mm
06:00 PM 33.8°F1.0°C 27.7°F-2.4°C 78% 0.8 mph ENE1.3 kmh ENE 4.0 mph6.4 kmh 30.12 in1020.0 mb 0.01 in0.3 mm 0.00 in0.0 mm 0.29 in7.4 mm
06:05 PM 33.8°F1.0°C 27.7°F-2.4°C 78% 0.7 mph ENE1.1 kmh ENE 2.0 mph3.2 kmh 30.11 in1019.6 mb 0.01 in0.3 mm 0.00 in0.0 mm 0.29 in7.4 mm
06:10 PM 33.7°F0.9°C 27.3°F-2.6°C 77% 1.3 mph ENE2.1 kmh ENE 4.0 mph6.4 kmh 30.11 in1019.6 mb 0.01 in0.3 mm 0.00 in0.0 mm 0.29 in7.4 mm
06:15 PM 33.6°F0.9°C 27.5°F-2.5°C 78% 1.0 mph NE1.6 kmh NE 4.0 mph6.4 kmh 30.12 in1020.0 mb 0.01 in0.3 mm 0.00 in0.0 mm 0.29 in7.4 mm
06:20 PM 33.4°F0.8°C 27.0°F-2.8°C 77% 0.6 mph NE1.0 kmh NE 3.0 mph4.8 kmh 30.12 in1020.0 mb 0.01 in0.3 mm 0.00 in0.0 mm 0.29 in7.4 mm
06:25 PM 33.2°F0.7°C 27.4°F-2.6°C 79% Calm Calm 3.0 mph4.8 kmh 30.12 in1020.0 mb 0.01 in0.3 mm 0.00 in0.0 mm 0.29 in7.4 mm
06:30 PM 32.9°F0.5°C 27.1°F-2.7°C 79% 0.1 mph NE0.2 kmh NE 1.0 mph1.6 kmh 30.13 in1020.3 mb 0.01 in0.3 mm 0.00 in0.0 mm 0.29 in7.4 mm
06:35 PM 32.5°F0.3°C 27.3°F-2.6°C 81% 0.1 mph NE0.2 kmh NE 2.0 mph3.2 kmh 30.13 in1020.3 mb 0.01 in0.3 mm 0.00 in0.0 mm 0.29 in7.4 mm
06:40 PM 32.1°F0.1°C 26.9°F-2.8°C 81% 0.8 mph NE1.3 kmh NE 2.0 mph3.2 kmh 30.13 in1020.3 mb 0.01 in0.3 mm 0.00 in0.0 mm 0.29 in7.4 mm
06:45 PM 31.8°F-0.1°C 26.6°F-3.0°C 81% 0.1 mph ENE0.2 kmh ENE 2.0 mph3.2 kmh 30.13 in1020.3 mb 0.01 in0.3 mm 0.00 in0.0 mm 0.29 in7.4 mm
06:50 PM 31.7°F-0.2°C 26.5°F-3.1°C 81% Calm Calm 1.0 mph1.6 kmh 30.12 in1020.0 mb 0.01 in0.3 mm 0.00 in0.0 mm 0.29 in7.4 mm
06:55 PM 31.6°F-0.2°C 26.2°F-3.2°C 80% Calm Calm -- 30.12 in1020.0 mb 0.01 in0.3 mm 0.00 in0.0 mm 0.29 in7.4 mm
07:00 PM 31.5°F-0.3°C 26.1°F-3.3°C 80% Calm Calm -- 30.12 in1020.0 mb 0.00 in0.0 mm 0.00 in0.0 mm 0.29 in7.4 mm
07:05 PM 31.3°F-0.4°C 25.9°F-3.4°C 80% Calm Calm -- 30.12 in1020.0 mb 0.00 in0.0 mm 0.00 in0.0 mm 0.29 in7.4 mm
07:10 PM 31.1°F-0.5°C 25.7°F-3.5°C 80% Calm Calm -- 30.12 in1020.0 mb 0.00 in0.0 mm 0.00 in0.0 mm 0.29 in7.4 mm
07:15 PM 30.9°F-0.6°C 25.5°F-3.6°C 80% Calm Calm -- 30.12 in1020.0 mb 0.00 in0.0 mm 0.00 in0.0 mm 0.29 in7.4 mm
07:20 PM 30.7°F-0.7°C 25.6°F-3.6°C 81% Calm Calm -- 30.13 in1020.3 mb 0.00 in0.0 mm 0.00 in0.0 mm 0.29 in7.4 mm
07:25 PM 30.5°F-0.8°C 25.4°F-3.7°C 81% 0.1 mph ENE0.2 kmh ENE 1.0 mph1.6 kmh 30.13 in1020.3 mb 0.00 in0.0 mm 0.00 in0.0 mm 0.29 in7.4 mm
07:30 PM 30.3°F-0.9°C 25.5°F-3.6°C 82% Calm Calm 1.0 mph1.6 kmh 30.13 in1020.3 mb 0.00 in0.0 mm 0.00 in0.0 mm 0.29 in7.4 mm
07:35 PM 30.1°F-1.1°C 25.3°F-3.7°C 82% Calm Calm -- 30.13 in1020.3 mb 0.00 in0.0 mm 0.00 in0.0 mm 0.29 in7.4 mm
07:40 PM 30.0°F-1.1°C 25.5°F-3.6°C 83% Calm Calm -- 30.13 in1020.3 mb 0.00 in0.0 mm 0.00 in0.0 mm 0.29 in7.4 mm
07:45 PM 29.9°F-1.2°C 25.4°F-3.7°C 83% 1.0 mph N1.6 kmh N 2.0 mph3.2 kmh 30.13 in1020.3 mb 0.00 in0.0 mm 0.00 in0.0 mm 0.29 in7.4 mm
07:50 PM 29.9°F-1.2°C 25.4°F-3.7°C 83% 0.3 mph N0.5 kmh N 2.0 mph3.2 kmh 30.13 in1020.3 mb 0.00 in0.0 mm 0.00 in0.0 mm 0.29 in7.4 mm
07:55 PM 29.8°F-1.2°C 25.6°F-3.6°C 84% 0.3 mph N0.5 kmh N 2.0 mph3.2 kmh 30.13 in1020.3 mb 0.00 in0.0 mm 0.00 in0.0 mm 0.29 in7.4 mm
08:00 PM 29.6°F-1.3°C 25.4°F-3.7°C 84% 0.3 mph N0.5 kmh N 3.0 mph4.8 kmh 30.13 in1020.3 mb 0.00 in0.0 mm 0.00 in0.0 mm 0.29 in7.4 mm
08:05 PM 29.5°F-1.4°C 25.0°F-3.9°C 83% 0.6 mph N1.0 kmh N 3.0 mph4.8 kmh 30.13 in1020.3 mb 0.00 in0.0 mm 0.00 in0.0 mm 0.29 in7.4 mm
08:10 PM 29.3°F-1.5°C 24.5°F-4.2°C 82% 1.8 mph NNW2.9 kmh NNW 4.0 mph6.4 kmh 30.13 in1020.3 mb 0.00 in0.0 mm 0.00 in0.0 mm 0.29 in7.4 mm
08:15 PM 29.5°F-1.4°C 24.4°F-4.2°C 81% 2.2 mph NNW3.5 kmh NNW 4.0 mph6.4 kmh 30.13 in1020.3 mb 0.00 in0.0 mm 0.00 in0.0 mm 0.29 in7.4 mm
08:20 PM 29.7°F-1.3°C 24.3°F-4.3°C 80% 2.4 mph NNW3.9 kmh NNW 4.0 mph6.4 kmh 30.13 in1020.3 mb 0.00 in0.0 mm 0.00 in0.0 mm 0.29 in7.4 mm
08:25 PM 29.7°F-1.3°C 24.3°F-4.3°C 80% 2.0 mph NNW3.2 kmh NNW 4.0 mph6.4 kmh 30.13 in1020.3 mb 0.00 in0.0 mm 0.00 in0.0 mm 0.29 in7.4 mm
08:30 PM 29.7°F-1.3°C 24.3°F-4.3°C 80% 2.1 mph N3.4 kmh N 4.0 mph6.4 kmh 30.14 in1020.7 mb 0.00 in0.0 mm 0.00 in0.0 mm 0.29 in7.4 mm
08:35 PM 29.7°F-1.3°C 24.0°F-4.4°C 79% 2.4 mph N3.9 kmh N 4.0 mph6.4 kmh 30.14 in1020.7 mb 0.00 in0.0 mm 0.00 in0.0 mm 0.29 in7.4 mm
08:40 PM 29.8°F-1.2°C 24.1°F-4.4°C 79% 2.0 mph N3.2 kmh N 4.0 mph6.4 kmh 30.14 in1020.7 mb 0.00 in0.0 mm 0.00 in0.0 mm 0.29 in7.4 mm
08:45 PM 29.8°F-1.2°C 24.1°F-4.4°C 79% 1.9 mph N3.1 kmh N 3.0 mph4.8 kmh 30.14 in1020.7 mb 0.00 in0.0 mm 0.00 in0.0 mm 0.29 in7.4 mm
08:50 PM 29.8°F-1.2°C 24.1°F-4.4°C 79% 2.4 mph N3.9 kmh N 4.0 mph6.4 kmh 30.14 in1020.7 mb 0.00 in0.0 mm 0.00 in0.0 mm 0.29 in7.4 mm
08:55 PM 29.9°F-1.2°C 24.2°F-4.3°C 79% 2.0 mph NNW3.2 kmh NNW 4.0 mph6.4 kmh 30.14 in1020.7 mb 0.00 in0.0 mm 0.00 in0.0 mm 0.29 in7.4 mm
09:00 PM 30.0°F-1.1°C 24.6°F-4.1°C 80% 2.5 mph NW4.0 kmh NW 4.0 mph6.4 kmh 30.14 in1020.7 mb 0.00 in0.0 mm 0.00 in0.0 mm 0.29 in7.4 mm
09:05 PM 30.0°F-1.1°C 24.6°F-4.1°C 80% 2.9 mph NNW4.7 kmh NNW 5.0 mph8.0 kmh 30.14 in1020.7 mb 0.00 in0.0 mm 0.00 in0.0 mm 0.29 in7.4 mm
09:10 PM 30.0°F-1.1°C 24.6°F-4.1°C 80% 2.4 mph NW3.9 kmh NW 5.0 mph8.0 kmh 30.14 in1020.7 mb 0.00 in0.0 mm 0.00 in0.0 mm 0.29 in7.4 mm
09:15 PM 29.9°F-1.2°C 24.5°F-4.2°C 80% 2.7 mph NW4.3 kmh NW 4.0 mph6.4 kmh 30.14 in1020.7 mb 0.00 in0.0 mm 0.00 in0.0 mm 0.29 in7.4 mm
09:20 PM 29.8°F-1.2°C 24.4°F-4.2°C 80% 2.0 mph WNW3.2 kmh WNW 4.0 mph6.4 kmh 30.14 in1020.7 mb 0.00 in0.0 mm 0.00 in0.0 mm 0.29 in7.4 mm
09:25 PM 29.6°F-1.3°C 24.5°F-4.2°C 81% 2.0 mph WNW3.2 kmh WNW 3.0 mph4.8 kmh 30.14 in1020.7 mb 0.00 in0.0 mm 0.00 in0.0 mm 0.29 in7.4 mm
09:30 PM 29.3°F-1.5°C 24.5°F-4.2°C 82% 2.0 mph W3.2 kmh W 3.0 mph4.8 kmh 30.14 in1020.7 mb 0.00 in0.0 mm 0.00 in0.0 mm 0.29 in7.4 mm
09:35 PM 29.0°F-1.7°C 24.5°F-4.2°C 83% 2.8 mph W4.5 kmh W 5.0 mph8.0 kmh 30.14 in1020.7 mb 0.00 in0.0 mm 0.00 in0.0 mm 0.29 in7.4 mm
09:40 PM 29.0°F-1.7°C 24.5°F-4.2°C 83% 2.3 mph W3.7 kmh W 5.0 mph8.0 kmh 30.14 in1020.7 mb 0.00 in0.0 mm 0.00 in0.0 mm 0.29 in7.4 mm
09:45 PM 29.3°F-1.5°C 24.2°F-4.3°C 81% 2.8 mph W4.5 kmh W 5.0 mph8.0 kmh 30.14 in1020.7 mb 0.00 in0.0 mm 0.00 in0.0 mm 0.29 in7.4 mm
09:50 PM 29.8°F-1.2°C 23.8°F-4.6°C 78% 2.9 mph W4.7 kmh W 8.0 mph12.9 kmh 30.14 in1020.7 mb 0.00 in0.0 mm 0.00 in0.0 mm 0.29 in7.4 mm
09:55 PM 30.6°F-0.8°C 23.6°F-4.7°C 75% 3.4 mph WNW5.5 kmh WNW 9.0 mph14.5 kmh 30.14 in1020.7 mb 0.00 in0.0 mm 0.00 in0.0 mm 0.29 in7.4 mm
10:00 PM 31.0°F-0.6°C 23.1°F-4.9°C 72% 2.8 mph W4.5 kmh W 9.0 mph14.5 kmh 30.14 in1020.7 mb 0.00 in0.0 mm 0.00 in0.0 mm 0.29 in7.4 mm
10:05 PM 31.5°F-0.3°C 22.9°F-5.1°C 70% 4.6 mph W7.4 kmh W 10.0 mph16.1 kmh 30.13 in1020.3 mb 0.00 in0.0 mm 0.00 in0.0 mm 0.29 in7.4 mm
10:10 PM 31.8°F-0.1°C 22.8°F-5.1°C 69% 5.5 mph W8.9 kmh W 11.0 mph17.7 kmh 30.13 in1020.3 mb 0.00 in0.0 mm 0.00 in0.0 mm 0.29 in7.4 mm
10:15 PM 32.0°F0.0°C 23.0°F-5.0°C 69% 5.0 mph W8.0 kmh W 11.0 mph17.7 kmh 30.13 in1020.3 mb 0.00 in0.0 mm 0.00 in0.0 mm 0.29 in7.4 mm
10:20 PM 32.0°F0.0°C 22.7°F-5.2°C 68% 4.0 mph W6.4 kmh W 10.0 mph16.1 kmh 30.13 in1020.3 mb 0.00 in0.0 mm 0.00 in0.0 mm 0.29 in7.4 mm
10:25 PM 31.9°F-0.1°C 22.6°F-5.2°C 68% 4.6 mph WSW7.4 kmh WSW 12.0 mph19.3 kmh 30.13 in1020.3 mb 0.00 in0.0 mm 0.00 in0.0 mm 0.29 in7.4 mm
10:30 PM 31.7°F-0.2°C 22.4°F-5.3°C 68% 4.0 mph WSW6.4 kmh WSW 12.0 mph19.3 kmh 30.14 in1020.7 mb 0.00 in0.0 mm 0.00 in0.0 mm 0.29 in7.4 mm
10:35 PM 32.3°F0.2°C 22.2°F-5.4°C 66% 4.9 mph W7.9 kmh W 11.0 mph17.7 kmh 30.14 in1020.7 mb 0.00 in0.0 mm 0.00 in0.0 mm 0.29 in7.4 mm
10:40 PM 32.3°F0.2°C 22.6°F-5.2°C 67% 4.4 mph WSW7.1 kmh WSW 11.0 mph17.7 kmh 30.14 in1020.7 mb 0.00 in0.0 mm 0.00 in0.0 mm 0.29 in7.4 mm
10:45 PM 32.2°F0.1°C 22.5°F-5.3°C 67% 4.0 mph WSW6.4 kmh WSW 10.0 mph16.1 kmh 30.13 in1020.3 mb 0.00 in0.0 mm 0.00 in0.0 mm 0.29 in7.4 mm
10:50 PM 32.6°F0.3°C 21.8°F-5.7°C 64% 5.9 mph W9.5 kmh W 10.0 mph16.1 kmh 30.13 in1020.3 mb 0.00 in0.0 mm 0.00 in0.0 mm 0.29 in7.4 mm
10:55 PM 32.8°F0.4°C 22.0°F-5.6°C 64% 5.3 mph W8.5 kmh W 11.0 mph17.7 kmh 30.13 in1020.3 mb 0.00 in0.0 mm 0.00 in0.0 mm 0.29 in7.4 mm
11:00 PM 32.9°F0.5°C 22.1°F-5.5°C 64% 6.7 mph W10.8 kmh W 12.0 mph19.3 kmh 30.13 in1020.3 mb 0.00 in0.0 mm 0.00 in0.0 mm 0.29 in7.4 mm
11:05 PM 32.7°F0.4°C 21.9°F-5.6°C 64% 5.5 mph W8.9 kmh W 12.0 mph19.3 kmh 30.13 in1020.3 mb 0.00 in0.0 mm 0.00 in0.0 mm 0.29 in7.4 mm
11:10 PM 32.8°F0.4°C 22.0°F-5.6°C 64% 6.6 mph W10.6 kmh W 14.0 mph22.5 kmh 30.12 in1020.0 mb 0.00 in0.0 mm 0.00 in0.0 mm 0.29 in7.4 mm
11:15 PM 32.8°F0.4°C 21.6°F-5.8°C 63% 6.3 mph WNW10.1 kmh WNW 14.0 mph22.5 kmh 30.12 in1020.0 mb 0.00 in0.0 mm 0.00 in0.0 mm 0.29 in7.4 mm
11:20 PM 33.1°F0.6°C 21.5°F-5.8°C 62% 6.5 mph W10.5 kmh W 13.0 mph20.9 kmh 30.12 in1020.0 mb 0.00 in0.0 mm 0.00 in0.0 mm 0.29 in7.4 mm
11:25 PM 33.1°F0.6°C 21.5°F-5.8°C 62% 5.7 mph W9.2 kmh W 13.0 mph20.9 kmh 30.12 in1020.0 mb 0.00 in0.0 mm 0.00 in0.0 mm 0.29 in7.4 mm
11:30 PM 33.3°F0.7°C 21.3°F-5.9°C 61% 6.2 mph W10.0 kmh W 15.0 mph24.1 kmh 30.12 in1020.0 mb 0.00 in0.0 mm 0.00 in0.0 mm 0.29 in7.4 mm
11:35 PM 33.5°F0.8°C 21.1°F-6.1°C 60% 7.3 mph W11.7 kmh W 15.0 mph24.1 kmh 30.12 in1020.0 mb 0.00 in0.0 mm 0.00 in0.0 mm 0.29 in7.4 mm
11:40 PM 33.4°F0.8°C 21.4°F-5.9°C 61% 7.1 mph W11.4 kmh W 16.0 mph25.7 kmh 30.12 in1020.0 mb 0.00 in0.0 mm 0.00 in0.0 mm 0.29 in7.4 mm
11:45 PM 33.4°F0.8°C 21.4°F-5.9°C 61% 7.5 mph W12.1 kmh W 16.0 mph25.7 kmh 30.11 in1019.6 mb 0.00 in0.0 mm 0.00 in0.0 mm 0.29 in7.4 mm
11:50 PM 33.6°F0.9°C 21.2°F-6.0°C 60% 10.6 mph WNW17.1 kmh WNW 19.0 mph30.6 kmh 30.11 in1019.6 mb 0.00 in0.0 mm 0.00 in0.0 mm 0.29 in7.4 mm
11:55 PM 33.4°F0.8°C 21.4°F-5.9°C 61% 7.9 mph W12.7 kmh W 19.0 mph30.6 kmh 30.11 in1019.6 mb 0.00 in0.0 mm 0.00 in0.0 mm 0.29 in7.4 mm